Bw Leopard — 9V2344 — position and weather

sailwx.info

Track history (hours):
 
Tides and Currents Weather Stations Pressure Air Temp Water Temp Dewpoint Dewpoint Depression Visibility Wind Speed Wind Dir Waves Ship Positions

Bw Leopard

Last reported at 2018-May-28 02:16 UTC. Time now 2018-Jul-16 22:05 UTC.
Position N 29°31' W 093°14'.
Warning: this ship's position is 49 days out of date.

Length 183 m; draft 11.1 m.

Type: Tanker. MMSI: 563868000.

Date/timePositionNaut miles runAvg speedWind from/ knotsBaromVisibWave heightAir tempDewpointWater temp
2018-May-28 02:16N 29°31' W 093°14'4 6.9
2018-May-28 01:44N 29°34' W 093°16'3 9.8
2018-May-28 01:28N 29°36' W 093°18'5 8.8
2018-May-28 00:55N 29°41' W 093°20'4 8.8
2018-May-28 00:30N 29°44' W 093°20'510.2
2018-May-28 00:00N 29°49' W 093°21'4 9.0
2018-May-27 23:30N 29°54' W 093°21'4 8.1
2018-May-27 23:00N 29°58' W 093°20'3 6.4
2018-May-27 22:30N 30°01' W 093°20'3 6.1
2018-May-27 22:00N 30°04' W 093°20'3 6.1
2018-May-27 21:30N 30°07' W 093°20'3 5.1
2018-May-27 21:00N 30°10' W 093°19'2 4.5
2018-May-27 20:30N 30°11' W 093°18'2 4.8
2018-May-27 20:00N 30°13' W 093°16'1 2.1
2018-May-27 19:30N 30°14' W 093°16'0 0.6
2018-May-27 18:41N 30°14' W 093°15'0 0.0
2018-May-27 18:29N 30°14' W 093°15'0 0.0
2018-May-27 17:47N 30°14' W 093°15'0 0.0
2018-May-27 17:20N 30°14' W 093°15'0 0.0
2018-May-27 16:44N 30°14' W 093°15'0 0.0
2018-May-27 16:23N 30°14' W 093°15'0 0.0
2018-May-27 15:23N 30°14' W 093°15'0 0.0
2018-May-27 14:59N 30°14' W 093°15'0 0.0
2018-May-27 13:26N 30°14' W 093°15'0 0.0
2018-May-27 12:59N 30°14' W 093°15'0 0.0
2018-May-27 12:02N 30°14' W 093°15'0 0.0
2018-May-27 11:59N 30°14' W 093°15'0 0.0
2018-May-27 08:56N 30°14' W 093°15'0 0.0
2018-May-27 08:26N 30°14' W 093°15'0 0.0
2018-May-27 07:53N 30°14' W 093°15'0 0.0
2018-May-27 07:23N 30°14' W 093°15'0 0.0
2018-May-27 06:56N 30°14' W 093°15'0 0.0
2018-May-27 06:26N 30°14' W 093°15'0 0.0
2018-May-27 05:59N 30°14' W 093°15'0 0.0
2018-May-27 04:50N 30°14' W 093°15'0 0.0
2018-May-27 04:26N 30°14' W 093°15'0 0.0
2018-May-27 03:56N 30°14' W 093°15'0 0.0
2018-May-27 03:26N 30°14' W 093°15'0 0.0
2018-May-27 02:56N 30°14' W 093°15'0 0.0
2018-May-27 02:29N 30°14' W 093°15'0 0.0
2018-May-27 01:59N 30°14' W 093°15'0 0.0
2018-May-27 01:26N 30°14' W 093°15'0 0.0
2018-May-27 00:59N 30°14' W 093°15'0 0.0
2018-May-27 00:29N 30°14' W 093°15'0 0.0
2018-May-26 23:59N 30°14' W 093°15'0 0.0
2018-May-26 23:23N 30°14' W 093°15'0 0.0
2018-May-26 22:44N 30°14' W 093°15'0 0.0
2018-May-26 22:20N 30°14' W 093°15'0 0.0
2018-May-26 21:59N 30°14' W 093°15'0 0.0
2018-May-26 21:29N 30°14' W 093°15'0 0.0
2018-May-26 20:59N 30°14' W 093°15'0 0.0
2018-May-26 20:26N 30°14' W 093°15'0 0.0
2018-May-26 19:50N 30°14' W 093°15'0 0.0
2018-May-26 19:29N 30°14' W 093°15'0 0.0
2018-May-26 18:59N 30°14' W 093°15'0 0.0
2018-May-26 18:29N 30°14' W 093°15'0 0.0
2018-May-26 17:56N 30°14' W 093°15'0 0.0
2018-May-26 17:26N 30°14' W 093°15'0 0.0
2018-May-26 16:38N 30°14' W 093°15'0 0.0
2018-May-26 16:29N 30°14' W 093°15'0 0.0
2018-May-26 15:56N 30°14' W 093°15'0 0.0
2018-May-26 15:29N 30°14' W 093°15'0 0.0
2018-May-26 14:56N 30°14' W 093°15'0 0.0
2018-May-26 14:29N 30°14' W 093°15'0 0.0
2018-May-26 13:59N 30°14' W 093°15'0 0.0
2018-May-26 13:29N 30°14' W 093°15'0 0.0
2018-May-26 12:56N 30°14' W 093°15'0 0.0
2018-May-26 12:29N 30°14' W 093°15'0 0.0
2018-May-26 11:59N 30°14' W 093°15'0 0.0
2018-May-26 11:29N 30°14' W 093°15'0 0.0
2018-May-26 10:59N 30°14' W 093°15'0 0.0
2018-May-26 10:29N 30°14' W 093°15'0 0.0
2018-May-26 09:59N 30°14' W 093°15'0 0.0
2018-May-26 09:29N 30°14' W 093°15'0 0.0
2018-May-26 08:59N 30°14' W 093°15'0 0.0
2018-May-26 08:29N 30°14' W 093°15'0 0.0
2018-May-26 07:56N 30°14' W 093°15'0 0.0
2018-May-26 07:29N 30°14' W 093°15'0 0.0
2018-May-26 06:56N 30°14' W 093°15'0 0.0
2018-May-26 06:26N 30°14' W 093°15'0 0.0
2018-May-26 05:29N 30°14' W 093°15'0 0.0
2018-May-26 04:59N 30°14' W 093°15'0 0.0
2018-May-26 04:29N 30°14' W 093°15'0 0.0
2018-May-26 03:59N 30°14' W 093°15'0 0.0
2018-May-26 03:26N 30°14' W 093°15'0 0.0
2018-May-26 02:59N 30°14' W 093°15'0 0.0
2018-May-26 02:29N 30°14' W 093°15'0 0.0
2018-May-26 01:50N 30°14' W 093°15'0 0.0
2018-May-26 01:23N 30°14' W 093°15'0 0.0
2018-May-26 00:59N 30°14' W 093°15'0 0.8
2018-May-26 00:30N 30°13' W 093°15'3 5.4
2018-May-26 00:00N 30°12' W 093°18'3 5.4
2018-May-25 23:30N 30°09' W 093°20'3 6.5
2018-May-25 23:00N 30°06' W 093°20'4 8.0
2018-May-25 22:30N 30°02' W 093°20'4 7.3
2018-May-25 22:00N 29°59' W 093°20'4 8.9
2018-May-25 21:30N 29°54' W 093°21'5 9.7
2018-May-25 21:00N 29°49' W 093°21'510.3
2018-May-25 20:30N 29°44' W 093°20'612.0
2018-May-25 20:00N 29°38' W 093°19'3 5.8
2018-May-25 19:29N 29°36' W 093°17'1 2.1
2018-May-25 18:59N 29°37' W 093°16'0 0.0
2018-May-25 13:29N 29°37' W 093°16'0 0.0
2018-May-25 12:59N 29°37' W 093°16'0 0.0
2018-May-25 11:05N 29°37' W 093°16'0 0.0
2018-May-25 10:56N 29°37' W 093°16'0 0.0
2018-May-25 10:29N 29°37' W 093°16'0 0.0
2018-May-25 09:59N 29°37' W 093°16'0 0.0
2018-May-25 09:26N 29°37' W 093°16'0 0.0
2018-May-25 06:08N 29°37' W 093°16'0 0.0
2018-May-25 05:53N 29°37' W 093°16'0 0.0
2018-May-25 02:26N 29°37' W 093°16'0 0.0
2018-May-24 21:20N 29°37' W 093°16'0 0.0
2018-May-24 20:56N 29°37' W 093°16'0 0.0
2018-May-24 14:11N 29°37' W 093°16'0 0.0
2018-May-24 13:59N 29°37' W 093°16'0 0.0
2018-May-24 08:53N 29°37' W 093°16'0 0.1
2018-May-24 08:29N 29°37' W 093°16'0 0.1
2018-May-24 07:59N 29°37' W 093°16'0 0.0
2018-May-24 07:29N 29°37' W 093°16'0 0.0
2018-May-24 06:59N 29°37' W 093°16'0 0.1
2018-May-24 06:29N 29°37' W 093°16'0 0.0
2018-May-24 04:53N 29°37' W 093°16'0 0.1
2018-May-24 03:08N 29°37' W 093°16'0 0.3
2018-May-24 02:59N 29°37' W 093°16'4 7.8
2018-May-24 02:31N 29°34' W 093°13'711.4
2018-May-24 01:55N 29°27' W 093°13'811.2
2018-May-24 01:10N 29°19' W 093°13'411.7
2018-May-24 00:49N 29°15' W 093°13'411.7
2018-May-24 00:27N 29°10' W 093°13'  
2018-May-19 21:02N 25°27' W 079°36'110.7
2018-May-19 20:59N 25°28' W 079°36'710.6
2018-May-19 20:22N 25°34' W 079°35'410.5
2018-May-19 20:00N 25°38' W 079°35'510.6
2018-May-19 19:30N 25°43' W 079°34'510.2
2018-May-19 19:00N 25°48' W 079°33'510.5
2018-May-19 18:30N 25°53' W 079°32'510.6
2018-May-19 18:00N 25°59' W 079°31'510.6
2018-May-19 17:30N 26°04' W 079°30'510.3
2018-May-19 17:00N 26°09' W 079°30'510.3
2018-May-19 16:30N 26°14' W 079°29'510.1
2018-May-19 16:00N 26°19' W 079°28'  
Track history (hours):
 
Tides and Currents Weather Stations Pressure Air Temp Water Temp Dewpoint Dewpoint Depression Visibility Wind Speed Wind Dir Waves Ship Positions

Bw Leopard

Last reported at 2018-May-28 02:16 UTC. Time now 2018-Jul-16 22:05 UTC.
Position N 29°31' W 093°14'.
Warning: this ship's position is 49 days out of date.

Length 183 m; draft 11.1 m.

Type: Tanker. MMSI: 563868000.

Date/timePositionNaut miles runAvg speedWind from/ knotsBaromVisibWave heightAir tempDewpointWater temp
2018-May-28 02:16N 29°31' W 093°14'4 6.9
2018-May-28 01:44N 29°34' W 093°16'3 9.8
2018-May-28 01:28N 29°36' W 093°18'5 8.8
2018-May-28 00:55N 29°41' W 093°20'4 8.8
2018-May-28 00:30N 29°44' W 093°20'510.2
2018-May-28 00:00N 29°49' W 093°21'4 9.0
2018-May-27 23:30N 29°54' W 093°21'4 8.1
2018-May-27 23:00N 29°58' W 093°20'3 6.4
2018-May-27 22:30N 30°01' W 093°20'3 6.1
2018-May-27 22:00N 30°04' W 093°20'3 6.1
2018-May-27 21:30N 30°07' W 093°20'3 5.1
2018-May-27 21:00N 30°10' W 093°19'2 4.5
2018-May-27 20:30N 30°11' W 093°18'2 4.8
2018-May-27 20:00N 30°13' W 093°16'1 2.1
2018-May-27 19:30N 30°14' W 093°16'0 0.6
2018-May-27 18:41N 30°14' W 093°15'0 0.0
2018-May-27 18:29N 30°14' W 093°15'0 0.0
2018-May-27 17:47N 30°14' W 093°15'0 0.0
2018-May-27 17:20N 30°14' W 093°15'0 0.0
2018-May-27 16:44N 30°14' W 093°15'0 0.0
2018-May-27 16:23N 30°14' W 093°15'0 0.0
2018-May-27 15:23N 30°14' W 093°15'0 0.0
2018-May-27 14:59N 30°14' W 093°15'0 0.0
2018-May-27 13:26N 30°14' W 093°15'0 0.0
2018-May-27 12:59N 30°14' W 093°15'0 0.0
2018-May-27 12:02N 30°14' W 093°15'0 0.0
2018-May-27 11:59N 30°14' W 093°15'0 0.0
2018-May-27 08:56N 30°14' W 093°15'0 0.0
2018-May-27 08:26N 30°14' W 093°15'0 0.0
2018-May-27 07:53N 30°14' W 093°15'0 0.0
2018-May-27 07:23N 30°14' W 093°15'0 0.0
2018-May-27 06:56N 30°14' W 093°15'0 0.0
2018-May-27 06:26N 30°14' W 093°15'0 0.0
2018-May-27 05:59N 30°14' W 093°15'0 0.0
2018-May-27 04:50N 30°14' W 093°15'0 0.0
2018-May-27 04:26N 30°14' W 093°15'0 0.0
2018-May-27 03:56N 30°14' W 093°15'0 0.0
2018-May-27 03:26N 30°14' W 093°15'0 0.0
2018-May-27 02:56N 30°14' W 093°15'0 0.0
2018-May-27 02:29N 30°14' W 093°15'0 0.0
2018-May-27 01:59N 30°14' W 093°15'0 0.0
2018-May-27 01:26N 30°14' W 093°15'0 0.0
2018-May-27 00:59N 30°14' W 093°15'0 0.0
2018-May-27 00:29N 30°14' W 093°15'0 0.0
2018-May-26 23:59N 30°14' W 093°15'0 0.0
2018-May-26 23:23N 30°14' W 093°15'0 0.0
2018-May-26 22:44N 30°14' W 093°15'0 0.0
2018-May-26 22:20N 30°14' W 093°15'0 0.0
2018-May-26 21:59N 30°14' W 093°15'0 0.0
2018-May-26 21:29N 30°14' W 093°15'0 0.0
2018-May-26 20:59N 30°14' W 093°15'0 0.0
2018-May-26 20:26N 30°14' W 093°15'0 0.0
2018-May-26 19:50N 30°14' W 093°15'0 0.0
2018-May-26 19:29N 30°14' W 093°15'0 0.0
2018-May-26 18:59N 30°14' W 093°15'0 0.0
2018-May-26 18:29N 30°14' W 093°15'0 0.0
2018-May-26 17:56N 30°14' W 093°15'0 0.0
2018-May-26 17:26N 30°14' W 093°15'0 0.0
2018-May-26 16:38N 30°14' W 093°15'0 0.0
2018-May-26 16:29N 30°14' W 093°15'0 0.0
2018-May-26 15:56N 30°14' W 093°15'0 0.0
2018-May-26 15:29N 30°14' W 093°15'0 0.0
2018-May-26 14:56N 30°14' W 093°15'0 0.0
2018-May-26 14:29N 30°14' W 093°15'0 0.0
2018-May-26 13:59N 30°14' W 093°15'0 0.0
2018-May-26 13:29N 30°14' W 093°15'0 0.0
2018-May-26 12:56N 30°14' W 093°15'0 0.0
2018-May-26 12:29N 30°14' W 093°15'0 0.0
2018-May-26 11:59N 30°14' W 093°15'0 0.0
2018-May-26 11:29N 30°14' W 093°15'0 0.0
2018-May-26 10:59N 30°14' W 093°15'0 0.0
2018-May-26 10:29N 30°14' W 093°15'0 0.0
2018-May-26 09:59N 30°14' W 093°15'0 0.0
2018-May-26 09:29N 30°14' W 093°15'0 0.0
2018-May-26 08:59N 30°14' W 093°15'0 0.0
2018-May-26 08:29N 30°14' W 093°15'0 0.0
2018-May-26 07:56N 30°14' W 093°15'0 0.0
2018-May-26 07:29N 30°14' W 093°15'0 0.0
2018-May-26 06:56N 30°14' W 093°15'0 0.0
2018-May-26 06:26N 30°14' W 093°15'0 0.0
2018-May-26 05:29N 30°14' W 093°15'0 0.0
2018-May-26 04:59N 30°14' W 093°15'0 0.0
2018-May-26 04:29N 30°14' W 093°15'0 0.0
2018-May-26 03:59N 30°14' W 093°15'0 0.0
2018-May-26 03:26N 30°14' W 093°15'0 0.0
2018-May-26 02:59N 30°14' W 093°15'0 0.0
2018-May-26 02:29N 30°14' W 093°15'0 0.0
2018-May-26 01:50N 30°14' W 093°15'0 0.0
2018-May-26 01:23N 30°14' W 093°15'0 0.0
2018-May-26 00:59N 30°14' W 093°15'0 0.8
2018-May-26 00:30N 30°13' W 093°15'3 5.4
2018-May-26 00:00N 30°12' W 093°18'3 5.4
2018-May-25 23:30N 30°09' W 093°20'3 6.5
2018-May-25 23:00N 30°06' W 093°20'4 8.0
2018-May-25 22:30N 30°02' W 093°20'4 7.3
2018-May-25 22:00N 29°59' W 093°20'4 8.9
2018-May-25 21:30N 29°54' W 093°21'5 9.7
2018-May-25 21:00N 29°49' W 093°21'510.3
2018-May-25 20:30N 29°44' W 093°20'612.0
2018-May-25 20:00N 29°38' W 093°19'3 5.8
2018-May-25 19:29N 29°36' W 093°17'1 2.1
2018-May-25 18:59N 29°37' W 093°16'0 0.0
2018-May-25 13:29N 29°37' W 093°16'0 0.0
2018-May-25 12:59N 29°37' W 093°16'0 0.0
2018-May-25 11:05N 29°37' W 093°16'0 0.0
2018-May-25 10:56N 29°37' W 093°16'0 0.0
2018-May-25 10:29N 29°37' W 093°16'0 0.0
2018-May-25 09:59N 29°37' W 093°16'0 0.0
2018-May-25 09:26N 29°37' W 093°16'0 0.0
2018-May-25 06:08N 29°37' W 093°16'0 0.0
2018-May-25 05:53N 29°37' W 093°16'0 0.0
2018-May-25 02:26N 29°37' W 093°16'0 0.0
2018-May-24 21:20N 29°37' W 093°16'0 0.0
2018-May-24 20:56N 29°37' W 093°16'0 0.0
2018-May-24 14:11N 29°37' W 093°16'0 0.0
2018-May-24 13:59N 29°37' W 093°16'0 0.0
2018-May-24 08:53N 29°37' W 093°16'0 0.1
2018-May-24 08:29N 29°37' W 093°16'0 0.1
2018-May-24 07:59N 29°37' W 093°16'0 0.0
2018-May-24 07:29N 29°37' W 093°16'0 0.0
2018-May-24 06:59N 29°37' W 093°16'0 0.1
2018-May-24 06:29N 29°37' W 093°16'0 0.0
2018-May-24 04:53N 29°37' W 093°16'0 0.1
2018-May-24 03:08N 29°37' W 093°16'0 0.3
2018-May-24 02:59N 29°37' W 093°16'4 7.8
2018-May-24 02:31N 29°34' W 093°13'711.4
2018-May-24 01:55N 29°27' W 093°13'811.2
2018-May-24 01:10N 29°19' W 093°13'411.7
2018-May-24 00:49N 29°15' W 093°13'411.7
2018-May-24 00:27N 29°10' W 093°13'  
2018-May-19 21:02N 25°27' W 079°36'110.7
2018-May-19 20:59N 25°28' W 079°36'710.6
2018-May-19 20:22N 25°34' W 079°35'410.5
2018-May-19 20:00N 25°38' W 079°35'510.6
2018-May-19 19:30N 25°43' W 079°34'510.2
2018-May-19 19:00N 25°48' W 079°33'510.5
2018-May-19 18:30N 25°53' W 079°32'510.6
2018-May-19 18:00N 25°59' W 079°31'510.6
2018-May-19 17:30N 26°04' W 079°30'510.3
2018-May-19 17:00N 26°09' W 079°30'510.3
2018-May-19 16:30N 26°14' W 079°29'510.1
2018-May-19 16:00N 26°19' W 079°28'  

Dump ship's entire track history